createdAt,value
2022-09-12T00:01:15.690Z,8.30
2022-09-12T00:03:43.287Z,8.27
2022-09-12T00:06:12.009Z,7.97
2022-09-12T00:08:39.740Z,8.50
2022-09-12T00:11:10.105Z,8.40
2022-09-12T00:13:41.429Z,8.43
2022-09-12T00:16:14.927Z,8.57
2022-09-12T00:18:42.390Z,9.30
2022-09-12T00:21:09.721Z,8.67
2022-09-12T00:23:37.055Z,9.00
2022-09-12T00:26:05.629Z,8.87
2022-09-12T00:28:36.248Z,8.70
2022-09-12T00:31:05.125Z,9.03
2022-09-12T00:33:32.481Z,8.70
2022-09-12T00:35:59.813Z,9.27
2022-09-12T00:38:27.224Z,9.67
2022-09-12T00:40:54.556Z,9.73
2022-09-12T00:43:36.996Z,9.53
2022-09-12T00:46:06.811Z,9.80
2022-09-12T00:48:36.039Z,9.83
2022-09-12T00:51:03.899Z,9.27
2022-09-12T00:53:31.277Z,9.03
2022-09-12T00:55:59.037Z,9.57
2022-09-12T00:58:28.845Z,9.40
2022-09-12T01:00:57.798Z,8.70
2022-09-12T01:03:27.255Z,8.63
2022-09-12T01:06:00.459Z,9.13
2022-09-12T01:08:28.370Z,9.27
2022-09-12T01:10:56.463Z,9.20
2022-09-12T01:13:24.181Z,9.57
2022-09-12T01:15:52.645Z,9.47
2022-09-12T01:18:24.614Z,9.70
2022-09-12T01:20:55.724Z,9.77
2022-09-12T01:23:38.639Z,8.73
2022-09-12T01:26:16.717Z,8.67
2022-09-12T01:28:52.000Z,8.40
2022-09-12T01:31:23.287Z,8.73
2022-09-12T01:33:56.753Z,9.07
2022-09-12T01:36:40.377Z,8.23
2022-09-12T01:39:14.423Z,8.80
2022-09-12T01:41:49.924Z,8.20
2022-09-12T01:44:24.055Z,8.67
2022-09-12T01:46:55.642Z,8.20
2022-09-12T01:49:24.356Z,7.90
2022-09-12T01:51:54.231Z,8.80
2022-09-12T01:54:23.376Z,9.17
2022-09-12T01:56:53.624Z,9.13
2022-09-12T01:59:24.953Z,9.63
2022-09-12T02:01:57.057Z,9.67
2022-09-12T02:04:29.125Z,10.67
2022-09-12T02:07:01.203Z,10.07
2022-09-12T02:09:30.397Z,10.20
2022-09-12T02:11:59.316Z,8.73
2022-09-12T02:14:28.665Z,8.43
2022-09-12T02:16:59.479Z,8.03
2022-09-12T02:19:30.932Z,8.50
2022-09-12T02:21:59.476Z,8.20
2022-09-12T02:24:30.036Z,7.53
2022-09-12T02:26:59.318Z,7.23
2022-09-12T02:29:26.705Z,7.30
2022-09-12T02:31:55.761Z,7.60
2022-09-12T02:34:28.752Z,8.27
2022-09-12T02:37:02.274Z,10.47
2022-09-12T02:39:29.773Z,9.07
2022-09-12T02:41:59.172Z,8.30
2022-09-12T02:44:27.746Z,8.20
2022-09-12T02:46:56.584Z,6.97
2022-09-12T02:49:23.974Z,7.90
2022-09-12T02:51:52.849Z,7.37
2022-09-12T02:54:20.891Z,7.73
2022-09-12T02:56:48.255Z,7.67
2022-09-12T02:59:16.735Z,7.17
2022-09-12T03:01:54.088Z,7.47
2022-09-12T03:04:34.333Z,7.00
2022-09-12T03:07:12.335Z,7.73
2022-09-12T03:09:44.006Z,7.93
2022-09-12T03:12:16.902Z,8.40
2022-09-12T03:15:01.479Z,8.00
2022-09-12T03:17:36.253Z,8.60
2022-09-12T03:20:05.850Z,8.77
2022-09-12T03:22:35.844Z,9.63
2022-09-12T03:25:07.423Z,9.77
2022-09-12T03:27:36.362Z,9.93
2022-09-12T03:30:04.963Z,10.20
2022-09-12T03:32:42.473Z,11.60
2022-09-12T03:35:10.387Z,10.70
2022-09-12T03:37:39.098Z,11.47
2022-09-12T03:40:07.821Z,11.70
2022-09-12T03:42:35.181Z,12.87
2022-09-12T03:45:02.672Z,12.67
2022-09-12T03:47:30.035Z,13.93
2022-09-12T03:49:57.364Z,13.63
2022-09-12T03:52:24.679Z,13.87
2022-09-12T03:54:53.346Z,13.20
2022-09-12T03:57:20.810Z,14.30
2022-09-12T03:59:49.225Z,13.47
2022-09-12T04:02:16.560Z,13.27
2022-09-12T04:04:44.177Z,13.33
2022-09-12T04:07:12.087Z,13.97
2022-09-12T04:09:39.465Z,13.47
2022-09-12T04:12:08.461Z,13.73
2022-09-12T04:14:35.929Z,12.97
2022-09-12T04:17:03.259Z,11.93
2022-09-12T04:19:30.889Z,12.43
2022-09-12T04:21:58.266Z,12.53
2022-09-12T04:24:25.613Z,10.93
2022-09-12T04:26:53.357Z,11.33
2022-09-12T04:29:22.011Z,11.83
2022-09-12T04:31:49.359Z,11.50
2022-09-12T04:34:16.886Z,11.73
2022-09-12T04:36:44.217Z,10.93
2022-09-12T04:39:12.289Z,10.97
2022-09-12T04:41:41.003Z,12.03
2022-09-12T04:44:09.855Z,11.03
2022-09-12T04:46:39.729Z,10.87
2022-09-12T04:49:07.111Z,11.27
2022-09-12T04:51:35.831Z,11.33
2022-09-12T04:54:04.655Z,11.33
2022-09-12T04:56:32.282Z,11.27
2022-09-12T04:59:00.455Z,11.30
2022-09-12T05:01:28.513Z,11.87
2022-09-12T05:03:57.873Z,11.40
2022-09-12T05:06:26.065Z,11.43
2022-09-12T05:08:53.971Z,10.83
2022-09-12T05:11:25.494Z,11.30
2022-09-12T05:13:55.792Z,12.30
2022-09-12T05:16:23.916Z,12.23
2022-09-12T05:18:51.702Z,12.20
2022-09-12T05:21:22.785Z,12.83
2022-09-12T05:23:51.763Z,12.70
2022-09-12T05:26:20.512Z,12.57
2022-09-12T05:28:48.516Z,12.77
2022-09-12T05:31:16.698Z,12.43
2022-09-12T05:33:45.145Z,14.03
2022-09-12T05:36:13.979Z,13.83
2022-09-12T05:38:42.728Z,14.13
2022-09-12T05:41:16.915Z,14.53
2022-09-12T05:43:46.086Z,14.63
2022-09-12T05:46:15.155Z,14.83
2022-09-12T05:48:43.295Z,13.83
2022-09-12T05:51:11.820Z,14.37
2022-09-12T05:53:40.228Z,12.67
2022-09-12T05:56:09.911Z,13.70
2022-09-12T05:58:37.973Z,13.13
2022-09-12T06:01:07.366Z,11.47
2022-09-12T06:03:35.052Z,12.13
2022-09-12T06:06:02.997Z,12.47
2022-09-12T06:08:30.662Z,15.47
2022-09-12T06:11:02.282Z,14.73
2022-09-12T06:13:31.763Z,14.60
2022-09-12T06:16:03.764Z,13.93
2022-09-12T06:18:31.097Z,14.83
2022-09-12T06:20:58.449Z,15.27
2022-09-12T06:23:26.850Z,15.10
2022-09-12T06:25:55.098Z,14.17
2022-09-12T06:28:22.552Z,15.10
2022-09-12T06:30:51.241Z,14.63
2022-09-12T06:33:18.643Z,13.70
2022-09-12T06:35:46.186Z,13.53
2022-09-12T06:38:13.540Z,14.00
2022-09-12T06:40:42.609Z,14.13
2022-09-12T06:43:09.945Z,13.57
2022-09-12T06:45:38.189Z,13.97
2022-09-12T06:48:07.073Z,13.43
2022-09-12T06:50:34.401Z,12.43
2022-09-12T06:53:01.733Z,13.17
2022-09-12T06:55:29.284Z,12.20
2022-09-12T06:57:56.626Z,12.60
2022-09-12T07:00:24.215Z,12.00
2022-09-12T07:02:54.505Z,12.00
2022-09-12T07:05:23.263Z,12.17
2022-09-12T07:07:50.623Z,12.53
2022-09-12T07:10:22.113Z,11.90
2022-09-12T07:12:49.689Z,11.20
2022-09-12T07:15:17.893Z,10.87
2022-09-12T07:17:45.229Z,11.50
2022-09-12T07:20:12.561Z,11.37
2022-09-12T07:22:41.374Z,11.23
2022-09-12T07:25:09.079Z,10.87
2022-09-12T07:27:37.610Z,11.80
2022-09-12T07:30:06.105Z,10.57
2022-09-12T07:32:33.436Z,10.60
2022-09-12T07:35:00.803Z,10.33
2022-09-12T07:37:31.045Z,9.43
2022-09-12T07:39:59.810Z,9.57
2022-09-12T07:42:27.240Z,8.37
2022-09-12T07:44:54.564Z,8.23
2022-09-12T07:47:22.080Z,7.03
2022-09-12T07:49:49.575Z,6.10
2022-09-12T07:52:16.900Z,7.90
2022-09-12T07:54:44.385Z,7.23
2022-09-12T07:57:13.039Z,7.07
2022-09-12T07:59:52.578Z,6.80
2022-09-12T08:02:21.313Z,6.33
2022-09-12T08:04:49.122Z,6.60
2022-09-12T08:07:18.324Z,6.73
2022-09-12T08:09:46.217Z,5.30
2022-09-12T08:12:16.629Z,5.17
2022-09-12T08:14:44.197Z,5.53
2022-09-12T08:17:11.780Z,5.50
2022-09-12T08:19:39.410Z,5.70
2022-09-12T08:22:07.283Z,6.00
2022-09-12T08:24:34.922Z,5.37
2022-09-12T08:27:02.596Z,5.07
2022-09-12T08:29:31.297Z,4.03
2022-09-12T08:31:58.761Z,4.10
2022-09-12T08:34:26.121Z,4.73
2022-09-12T08:36:54.226Z,4.40
2022-09-12T08:39:22.278Z,4.60
2022-09-12T08:41:50.351Z,5.20
2022-09-12T08:44:24.922Z,4.40
2022-09-12T08:46:59.357Z,4.57
2022-09-12T08:49:31.009Z,4.33
2022-09-12T08:52:00.056Z,4.67
2022-09-12T08:54:29.691Z,4.10
2022-09-12T08:56:59.883Z,3.57
2022-09-12T08:59:27.203Z,4.03
2022-09-12T09:01:58.380Z,4.07
2022-09-12T09:04:32.155Z,3.90
2022-09-12T09:07:08.268Z,3.63
2022-09-12T09:09:42.873Z,3.63
2022-09-12T09:12:15.680Z,3.77
2022-09-12T09:14:57.937Z,3.50
2022-09-12T09:17:29.913Z,2.50
2022-09-12T09:20:00.877Z,2.03
2022-09-12T09:22:36.249Z,2.20
2022-09-12T09:25:07.179Z,2.23
2022-09-12T09:27:41.004Z,2.40
2022-09-12T09:30:13.749Z,2.40
2022-09-12T09:32:42.581Z,2.50
2022-09-12T09:35:15.497Z,2.43
2022-09-12T09:37:44.485Z,2.30
2022-09-12T09:40:18.842Z,2.67
2022-09-12T09:42:49.664Z,2.67
2022-09-12T09:45:18.422Z,1.60
2022-09-12T09:47:49.933Z,1.70
2022-09-12T09:50:17.827Z,1.70
2022-09-12T09:52:45.302Z,2.30
2022-09-12T09:55:15.129Z,2.60
2022-09-12T09:57:44.536Z,2.50
2022-09-12T10:00:25.887Z,2.00
2022-09-12T10:03:02.820Z,1.90
2022-09-12T10:05:30.883Z,2.10
2022-09-12T10:07:58.583Z,2.00
2022-09-12T10:10:26.264Z,1.60
2022-09-12T10:13:07.474Z,2.00
2022-09-12T10:15:35.025Z,1.80
2022-09-12T10:18:04.309Z,1.97
2022-09-12T10:20:32.641Z,1.77
2022-09-12T10:23:00.937Z,1.50
2022-09-12T10:25:28.921Z,1.77
2022-09-12T10:27:58.127Z,1.23
2022-09-12T10:30:28.294Z,1.60
2022-09-12T10:32:58.897Z,1.83
2022-09-12T10:35:30.720Z,1.63
2022-09-12T10:37:59.448Z,1.60
2022-09-12T10:40:27.926Z,1.50
2022-09-12T10:42:56.261Z,1.50
2022-09-12T10:45:26.299Z,1.60
2022-09-12T10:47:54.236Z,2.20
2022-09-12T10:50:23.268Z,2.33
2022-09-12T10:52:52.078Z,2.73
2022-09-12T10:55:23.797Z,3.10
2022-09-12T10:57:56.061Z,2.70
2022-09-12T11:00:27.834Z,2.50
2022-09-12T11:02:59.460Z,2.27
2022-09-12T11:05:39.611Z,1.93
2022-09-12T11:08:27.590Z,2.23
2022-09-12T11:10:57.177Z,2.13
2022-09-12T11:13:31.144Z,1.00
2022-09-12T11:16:03.787Z,1.17
2022-09-12T11:18:39.809Z,1.20
2022-09-12T11:21:15.507Z,1.30
2022-09-12T11:24:00.583Z,1.50
2022-09-12T11:26:35.265Z,1.07
2022-09-12T11:29:08.431Z,0.90
2022-09-12T11:31:51.271Z,1.20
2022-09-12T11:34:23.222Z,1.10
2022-09-12T11:36:58.478Z,1.20
2022-09-12T11:39:30.134Z,1.07
2022-09-12T11:42:00.915Z,0.90
2022-09-12T11:44:30.307Z,0.73
2022-09-12T11:46:58.183Z,0.90
2022-09-12T11:49:33.541Z,1.00
2022-09-12T11:52:05.358Z,0.90
2022-09-12T11:54:34.930Z,0.90
2022-09-12T11:57:07.790Z,1.07
2022-09-12T11:59:37.885Z,0.93
2022-09-12T12:02:05.285Z,1.00
2022-09-12T12:04:36.258Z,1.00
2022-09-12T12:07:05.789Z,1.07
2022-09-12T12:09:33.458Z,1.00
2022-09-12T12:12:02.580Z,0.93
2022-09-12T12:14:33.365Z,0.80
2022-09-12T12:17:00.794Z,1.00
2022-09-12T12:19:38.381Z,0.90
2022-09-12T12:22:09.905Z,1.00
2022-09-12T12:24:54.726Z,0.90
2022-09-12T12:27:25.827Z,1.00
2022-09-12T12:29:54.546Z,1.00
2022-09-12T12:32:24.012Z,1.03
2022-09-12T12:34:51.381Z,1.00
2022-09-12T12:37:37.737Z,1.00
2022-09-12T12:40:09.809Z,1.00
2022-09-12T12:43:02.633Z,0.90
2022-09-12T12:45:48.845Z,1.00
2022-09-12T12:48:20.303Z,0.80
2022-09-12T12:50:48.354Z,0.90
2022-09-12T12:53:19.091Z,0.97
2022-09-12T12:55:48.722Z,1.43
2022-09-12T12:58:27.133Z,1.30
2022-09-12T13:01:04.120Z,1.10
2022-09-12T13:03:34.069Z,1.17
2022-09-12T13:06:02.389Z,1.60
2022-09-12T13:08:31.661Z,1.30
2022-09-12T13:11:01.050Z,1.07
2022-09-12T13:13:32.290Z,1.30
2022-09-12T13:15:59.754Z,1.20
2022-09-12T13:18:28.703Z,1.40
2022-09-12T13:21:01.619Z,1.17
2022-09-12T13:23:30.223Z,1.03
2022-09-12T13:25:58.481Z,1.00
2022-09-12T13:28:27.265Z,1.20
2022-09-12T13:31:02.917Z,1.20
2022-09-12T13:33:36.772Z,1.03
2022-09-12T13:36:37.335Z,1.13
2022-09-12T13:39:15.668Z,1.20
2022-09-12T13:41:53.214Z,1.30
2022-09-12T13:44:21.589Z,1.33
2022-09-12T13:46:49.178Z,1.30
2022-09-12T13:49:20.268Z,1.10
2022-09-12T13:51:53.872Z,1.33
2022-09-12T13:54:24.628Z,1.30
2022-09-12T13:56:52.070Z,1.10
2022-09-12T13:59:19.410Z,1.33
2022-09-12T14:01:47.526Z,1.33
2022-09-12T14:04:34.105Z,1.00
2022-09-12T14:07:02.468Z,1.03
2022-09-12T14:09:33.057Z,1.20
2022-09-12T14:12:00.994Z,1.20
2022-09-12T14:14:31.399Z,1.30
2022-09-12T14:16:58.859Z,1.40
2022-09-12T14:19:26.780Z,1.20
2022-09-12T14:21:54.374Z,1.23
2022-09-12T14:24:24.335Z,1.10
2022-09-12T14:26:56.605Z,1.30
2022-09-12T14:29:25.186Z,1.23
2022-09-12T14:32:03.557Z,1.00
2022-09-12T14:34:31.052Z,1.07
2022-09-12T14:36:58.695Z,1.00
2022-09-12T14:39:29.493Z,1.10
2022-09-12T14:42:05.705Z,1.03
2022-09-12T14:44:33.954Z,1.00
2022-09-12T14:47:10.984Z,0.93
2022-09-12T14:49:38.651Z,0.90
2022-09-12T14:52:07.267Z,0.80
2022-09-12T14:54:39.347Z,0.90
2022-09-12T14:57:19.256Z,1.03
2022-09-12T14:59:46.635Z,1.00
2022-09-12T15:02:23.108Z,0.97
2022-09-12T15:04:51.504Z,0.90
2022-09-12T15:07:25.977Z,1.10
2022-09-12T15:09:53.304Z,1.10
2022-09-12T15:12:25.671Z,0.90
2022-09-12T15:14:53.051Z,0.97
2022-09-12T15:17:20.451Z,0.97
2022-09-12T15:19:47.790Z,1.00
2022-09-12T15:22:15.312Z,0.77
2022-09-12T15:24:42.637Z,0.87
2022-09-12T15:27:10.454Z,1.00
2022-09-12T15:29:39.508Z,0.90
2022-09-12T15:32:07.493Z,0.87
2022-09-12T15:34:35.156Z,0.90
2022-09-12T15:37:02.513Z,0.80
2022-09-12T15:39:29.845Z,1.03
2022-09-12T15:41:57.393Z,1.00
2022-09-12T15:44:24.731Z,0.90
2022-09-12T15:46:53.389Z,1.00
2022-09-12T15:49:20.735Z,0.90
2022-09-12T15:51:48.403Z,0.90
2022-09-12T15:54:22.025Z,1.07
2022-09-12T15:56:49.930Z,0.90
2022-09-12T15:59:17.325Z,0.90
2022-09-12T16:01:45.062Z,0.80
2022-09-12T16:04:21.491Z,1.10
2022-09-12T16:06:48.952Z,0.90
2022-09-12T16:09:16.918Z,1.00
2022-09-12T16:11:44.999Z,0.87
2022-09-12T16:14:14.350Z,1.10
2022-09-12T16:16:41.707Z,1.07
2022-09-12T16:19:09.847Z,0.97
2022-09-12T16:21:38.722Z,1.00
2022-09-12T16:24:06.111Z,0.90
2022-09-12T16:26:33.504Z,1.00
2022-09-12T16:29:01.371Z,0.80
2022-09-12T16:31:28.934Z,1.00
2022-09-12T16:33:56.889Z,1.17
2022-09-12T16:36:24.236Z,1.07
2022-09-12T16:38:53.867Z,1.00
2022-09-12T16:41:22.374Z,0.90
2022-09-12T16:43:49.788Z,0.80
2022-09-12T16:46:18.870Z,1.20
2022-09-12T16:48:52.103Z,1.10
2022-09-12T16:51:21.053Z,1.20
2022-09-12T16:53:49.213Z,1.07
2022-09-12T16:56:18.375Z,1.10
2022-09-12T16:58:46.186Z,1.07
2022-09-12T17:01:14.354Z,1.30
2022-09-12T17:03:41.880Z,1.20
2022-09-12T17:06:10.446Z,1.30
2022-09-12T17:08:38.979Z,1.07
2022-09-12T17:11:07.589Z,1.20
2022-09-12T17:14:00.507Z,1.10
2022-09-12T17:16:26.373Z,1.00
2022-09-12T17:18:54.183Z,1.20
2022-09-12T17:21:22.080Z,1.10
2022-09-12T17:23:49.743Z,1.30
2022-09-12T17:26:17.343Z,1.40
2022-09-12T17:28:46.300Z,1.03
2022-09-12T17:31:15.045Z,1.17
2022-09-12T17:33:42.975Z,1.67
2022-09-12T17:36:11.767Z,1.60
2022-09-12T17:38:40.536Z,1.50
2022-09-12T17:41:08.813Z,1.73
2022-09-12T17:43:37.973Z,1.80
2022-09-12T17:46:06.830Z,1.70
2022-09-12T17:48:34.238Z,1.60
2022-09-12T17:51:07.161Z,1.90
2022-09-12T17:53:34.718Z,2.23
2022-09-12T17:56:02.841Z,2.43
2022-09-12T17:58:30.308Z,2.30
2022-09-12T18:01:18.871Z,1.97
2022-09-12T18:03:48.000Z,2.47
2022-09-12T18:06:15.894Z,2.37
2022-09-12T18:08:43.264Z,2.20
2022-09-12T18:11:10.618Z,2.23
2022-09-12T18:13:37.973Z,2.10
2022-09-12T18:16:06.310Z,1.93
2022-09-12T18:18:34.217Z,2.23
2022-09-12T18:21:03.231Z,2.40
2022-09-12T18:23:31.688Z,2.30
2022-09-12T18:25:59.097Z,2.50
2022-09-12T18:28:26.598Z,2.10
2022-09-12T18:30:54.245Z,2.57
2022-09-12T18:33:24.076Z,2.00
2022-09-12T18:35:51.675Z,2.33
2022-09-12T18:38:20.396Z,2.33
2022-09-12T18:40:47.830Z,2.57
2022-09-12T18:43:15.278Z,2.67
2022-09-12T18:45:42.618Z,3.30
2022-09-12T18:48:09.980Z,3.20
2022-09-12T18:50:37.693Z,4.13
2022-09-12T18:53:05.041Z,3.50
2022-09-12T18:55:34.005Z,3.70
2022-09-12T18:58:01.329Z,3.60
2022-09-12T19:00:28.708Z,3.43
2022-09-12T19:02:56.101Z,3.70
2022-09-12T19:05:23.429Z,3.00
2022-09-12T19:07:50.785Z,3.30
2022-09-12T19:10:19.575Z,3.17
2022-09-12T19:12:48.273Z,2.90
2022-09-12T19:15:15.721Z,2.53
2022-09-12T19:17:43.634Z,2.90
2022-09-12T19:20:11.077Z,2.50
2022-09-12T19:22:38.404Z,2.90
2022-09-12T19:25:06.100Z,2.43
2022-09-12T19:27:33.445Z,2.70
2022-09-12T19:30:02.108Z,2.27
2022-09-12T19:32:29.508Z,2.23
2022-09-12T19:34:56.866Z,2.50
2022-09-12T19:37:24.357Z,2.43
2022-09-12T19:39:51.725Z,2.47
2022-09-12T19:42:19.477Z,2.37
2022-09-12T19:44:46.908Z,2.37
2022-09-12T19:47:15.625Z,2.77
2022-09-12T19:49:42.964Z,2.60
2022-09-12T19:52:12.560Z,2.80
2022-09-12T19:54:41.725Z,2.23
2022-09-12T19:57:09.065Z,2.30
2022-09-12T19:59:36.404Z,2.33
2022-09-12T20:02:03.920Z,2.47
2022-09-12T20:04:33.588Z,2.10
2022-09-12T20:07:00.915Z,2.27
2022-09-12T20:09:28.232Z,2.50
2022-09-12T20:11:55.603Z,2.17
2022-09-12T20:14:23.021Z,2.10
2022-09-12T20:16:50.525Z,2.57
2022-09-12T20:19:17.835Z,2.20
2022-09-12T20:21:46.485Z,2.20
2022-09-12T20:24:15.717Z,2.40
2022-09-12T20:26:43.125Z,2.00
2022-09-12T20:29:11.092Z,2.30
2022-09-12T20:31:39.519Z,2.07
2022-09-12T20:34:07.492Z,2.27
2022-09-12T20:36:35.147Z,2.07
2022-09-12T20:39:03.880Z,2.07
2022-09-12T20:41:33.858Z,2.13
2022-09-12T20:44:01.195Z,2.20
2022-09-12T20:46:29.261Z,2.53
2022-09-12T20:48:58.311Z,2.30
2022-09-12T20:51:26.648Z,2.20
2022-09-12T20:53:54.473Z,1.90
2022-09-12T20:56:23.606Z,2.40
2022-09-12T20:58:51.119Z,2.60
2022-09-12T21:01:18.588Z,2.57
2022-09-12T21:03:46.580Z,2.67
2022-09-12T21:06:14.727Z,2.67
2022-09-12T21:08:42.073Z,2.70
2022-09-12T21:11:09.805Z,2.93
2022-09-12T21:13:38.766Z,2.30
2022-09-12T21:16:07.707Z,2.40
2022-09-12T21:18:35.735Z,2.27
2022-09-12T21:21:03.426Z,2.47
2022-09-12T21:23:30.783Z,2.20
2022-09-12T21:25:59.419Z,2.60
2022-09-12T21:28:27.041Z,2.50
2022-09-12T21:30:55.883Z,2.07
2022-09-12T21:33:23.650Z,2.30
2022-09-12T21:35:51.182Z,2.20
2022-09-12T21:38:19.365Z,2.80
2022-09-12T21:40:46.809Z,2.70
2022-09-12T21:43:14.143Z,2.17
2022-09-12T21:45:41.594Z,2.50
2022-09-12T21:48:10.296Z,2.30
2022-09-12T21:50:37.717Z,2.30
2022-09-12T21:53:05.041Z,2.27
2022-09-12T21:55:32.389Z,2.07
2022-09-12T21:57:59.718Z,2.23
2022-09-12T22:00:27.093Z,2.33
2022-09-12T22:02:54.649Z,2.70
2022-09-12T22:05:23.606Z,2.20
2022-09-12T22:07:50.978Z,1.93
2022-09-12T22:10:18.320Z,2.27
2022-09-12T22:12:46.462Z,2.03
2022-09-12T22:15:38.734Z,2.37
2022-09-12T22:18:01.987Z,2.03
2022-09-12T22:20:30.661Z,2.20
2022-09-12T22:23:15.883Z,1.80
2022-09-12T22:25:43.267Z,2.20
2022-09-12T22:28:10.794Z,2.10
2022-09-12T22:30:38.591Z,2.50
2022-09-12T22:33:06.016Z,1.90
2022-09-12T22:35:34.747Z,1.80
2022-09-12T22:38:02.109Z,2.50
2022-09-12T22:40:29.456Z,2.10
2022-09-12T22:42:56.783Z,2.23
2022-09-12T22:45:24.365Z,1.93
2022-09-12T22:47:51.767Z,1.83
2022-09-12T22:50:19.113Z,2.10
2022-09-12T22:52:47.771Z,2.60
2022-09-12T22:55:15.115Z,2.27
2022-09-12T22:57:42.436Z,2.20
2022-09-12T23:00:11.335Z,2.40
2022-09-12T23:02:38.824Z,2.30
2022-09-12T23:05:06.464Z,2.30
2022-09-12T23:07:33.908Z,2.37
2022-09-12T23:10:02.568Z,2.57
2022-09-12T23:12:30.087Z,2.77
2022-09-12T23:14:57.417Z,2.60
2022-09-12T23:17:24.776Z,2.50
2022-09-12T23:19:52.507Z,2.83
2022-09-12T23:22:19.857Z,2.97
2022-09-12T23:24:47.208Z,2.30
2022-09-12T23:27:16.033Z,2.80
2022-09-12T23:29:43.701Z,2.73
2022-09-12T23:32:11.031Z,2.50
2022-09-12T23:34:38.361Z,2.90
2022-09-12T23:37:05.693Z,2.33
2022-09-12T23:39:33.025Z,2.77
2022-09-12T23:42:00.353Z,2.30
2022-09-12T23:44:29.015Z,2.40
2022-09-12T23:46:56.340Z,2.80
2022-09-12T23:49:23.765Z,2.40
2022-09-12T23:51:51.128Z,2.77
2022-09-12T23:54:18.517Z,2.73
2022-09-12T23:56:45.976Z,2.63
2022-09-12T23:59:13.319Z,2.73
